Airfield :
LOGIN :

Register | Disclaimer

   EN    FR    IT 

 










Legend :    VFR   Marginal VFR   IFR   Intensive IFR   Very Intensive IFR
Visi :
Ceiling :
>= 8 km
>= 3000ft
5 to 8 km
1000 to 3000 ft
1500m to 5 km
500 to 1000 ft
800 to 1500m
200 to 500 ft
< 800m
< 200 ft
Symbols :   Thunderstorms  Fog  Heavy snow  Heavy precipitations  Wind > 20 kt
SIGMETs :     Misc.  Thunderstorms  Icing  Turbulence  Mountain Waves  Volcanic Ashes







- Airport Elevation : 119 ft
- IATA code : WAT


EIWF - Waterford

METAR N/A
TAF TAF EIWF
Valid from the 23 at 03:00 until the 23 at 12:00 UTC


230200Z 2303/2312 27013KT 9999 SCT030
BECMG 2303/2305 24025G35KT
PROB40
TEMPO 2304/2308 24030G45KT
ATIS : +353 51 877 000
No reported NOTAMs for that airfield.
1 SIGMET reported for the Shannon FIR (EISN) :
 
Severe turbulence
EISN SIGMET 01 VALID 230310/230710 EINN
EISN SHANNON FIR SEV TURB FCST WI N5425 W01100 - N5405 W01400 - N5330 W01300 - N5205 W01100 - N5300 W01020 - N5425 W01100 SFC/FL060 MOV SE AT 25KT NC=



MET'MAP, your aeronautical weather chart ! - Copyright ORBIFLY December 2007 - Disclaimer

ORBIFLY MET'MAP TEAM :

Programming & Development : Alexandra Zaïnal
Concept & Development : Baudouin d'Aumeries
Co-Development & Prog : Marc-Olivier Méhu
Technical & hardware support : Manuel Goepfert

Contact : metmap@orbifly.com




SOURCES & CREDITS :

   NOAA